sensor_id;sensor_type;location;lat;lon;timestamp;temperature;humidity
46336;DHT22;31365;48.858;8.530;2024-03-23T00:54:24;10.80;99.90
46336;DHT22;31365;48.858;8.530;2024-03-23T00:56:51;10.80;99.90
46336;DHT22;31365;48.858;8.530;2024-03-23T00:59:18;10.80;99.90
46336;DHT22;31365;48.858;8.530;2024-03-23T01:01:45;10.80;99.90
46336;DHT22;31365;48.858;8.530;2024-03-23T01:04:14;10.80;99.90
46336;DHT22;31365;48.858;8.530;2024-03-23T01:06:40;10.90;99.90
46336;DHT22;31365;48.858;8.530;2024-03-23T01:09:09;10.80;99.90
46336;DHT22;31365;48.858;8.530;2024-03-23T01:11:37;10.90;99.90
46336;DHT22;31365;48.858;8.530;2024-03-23T01:14:04;10.90;99.90
46336;DHT22;31365;48.858;8.530;2024-03-23T01:16:31;10.90;99.90
46336;DHT22;31365;48.858;8.530;2024-03-23T01:18:59;10.90;99.90
46336;DHT22;31365;48.858;8.530;2024-03-23T01:21:25;11.00;99.90
46336;DHT22;31365;48.858;8.530;2024-03-23T01:23:52;11.00;99.90
46336;DHT22;31365;48.858;8.530;2024-03-23T01:26:20;11.00;99.90
46336;DHT22;31365;48.858;8.530;2024-03-23T01:28:48;11.00;99.90
46336;DHT22;31365;48.858;8.530;2024-03-23T01:31:15;11.00;99.90
46336;DHT22;31365;48.858;8.530;2024-03-23T01:33:43;10.90;99.90
46336;DHT22;31365;48.858;8.530;2024-03-23T01:36:09;10.80;99.90
46336;DHT22;31365;48.858;8.530;2024-03-23T01:38:37;10.80;99.90
46336;DHT22;31365;48.858;8.530;2024-03-23T01:41:03;10.80;99.90
46336;DHT22;31365;48.858;8.530;2024-03-23T01:43:32;10.80;99.90
46336;DHT22;31365;48.858;8.530;2024-03-23T01:45:59;10.80;99.90
46336;DHT22;31365;48.858;8.530;2024-03-23T01:48:26;10.80;99.90
46336;DHT22;31365;48.858;8.530;2024-03-23T01:50:52;10.80;99.90
46336;DHT22;31365;48.858;8.530;2024-03-23T01:53:20;10.80;99.90
46336;DHT22;31365;48.858;8.530;2024-03-23T01:55:50;10.80;99.90
46336;DHT22;31365;48.858;8.530;2024-03-23T01:58:18;10.80;99.90
46336;DHT22;31365;48.858;8.530;2024-03-23T02:00:45;10.70;99.90
46336;DHT22;31365;48.858;8.530;2024-03-23T02:03:22;10.70;99.90
46336;DHT22;31365;48.858;8.530;2024-03-23T02:05:50;11.10;99.90
46336;DHT22;31365;48.858;8.530;2024-03-23T02:08:20;11.50;99.90
46336;DHT22;31365;48.858;8.530;2024-03-23T02:10:48;11.70;99.90
46336;DHT22;31365;48.858;8.530;2024-03-23T02:13:17;12.00;99.90
46336;DHT22;31365;48.858;8.530;2024-03-23T02:15:46;12.10;99.90
46336;DHT22;31365;48.858;8.530;2024-03-23T02:18:14;12.30;99.90
46336;DHT22;31365;48.858;8.530;2024-03-23T02:20:40;12.50;99.90
46336;DHT22;31365;48.858;8.530;2024-03-23T02:23:14;12.50;99.90
46336;DHT22;31365;48.858;8.530;2024-03-23T02:25:40;12.60;99.90
46336;DHT22;31365;48.858;8.530;2024-03-23T02:28:08;12.80;99.90
46336;DHT22;31365;48.858;8.530;2024-03-23T02:30:34;12.80;99.90
46336;DHT22;31365;48.858;8.530;2024-03-23T02:33:02;12.90;99.90
46336;DHT22;31365;48.858;8.530;2024-03-23T02:35:29;13.00;99.90
46336;DHT22;31365;48.858;8.530;2024-03-23T02:37:56;13.10;99.90
46336;DHT22;31365;48.858;8.530;2024-03-23T02:40:24;13.10;99.90
46336;DHT22;31365;48.858;8.530;2024-03-23T02:42:52;13.10;99.90
46336;DHT22;31365;48.858;8.530;2024-03-23T02:45:19;13.10;99.90
46336;DHT22;31365;48.858;8.530;2024-03-23T02:47:46;13.10;99.90
46336;DHT22;31365;48.858;8.530;2024-03-23T02:50:13;13.10;99.90
46336;DHT22;31365;48.858;8.530;2024-03-23T02:52:42;13.10;99.90
46336;DHT22;31365;48.858;8.530;2024-03-23T02:55:08;13.10;99.90
46336;DHT22;31365;48.858;8.530;2024-03-23T02:57:38;13.10;99.90
46336;DHT22;31365;48.858;8.530;2024-03-23T03:00:05;13.10;99.90
46336;DHT22;31365;48.858;8.530;2024-03-23T03:02:34;13.10;99.90
46336;DHT22;31365;48.858;8.530;2024-03-23T03:05:00;13.10;99.90
46336;DHT22;31365;48.858;8.530;2024-03-23T03:07:28;13.10;99.90
46336;DHT22;31365;48.858;8.530;2024-03-23T03:09:54;13.10;99.90
46336;DHT22;31365;48.858;8.530;2024-03-23T03:12:21;13.20;99.90
46336;DHT22;31365;48.858;8.530;2024-03-23T03:14:49;13.10;99.90
46336;DHT22;31365;48.858;8.530;2024-03-23T03:17:16;13.10;99.90
46336;DHT22;31365;48.858;8.530;2024-03-23T03:19:44;13.00;99.90
46336;DHT22;31365;48.858;8.530;2024-03-23T03:22:12;13.00;99.90
46336;DHT22;31365;48.858;8.530;2024-03-23T03:24:38;13.00;99.90
46336;DHT22;31365;48.858;8.530;2024-03-23T03:27:06;13.00;99.90
46336;DHT22;31365;48.858;8.530;2024-03-23T03:29:33;13.00;99.90
46336;DHT22;31365;48.858;8.530;2024-03-23T03:32:04;13.10;99.90
46336;DHT22;31365;48.858;8.530;2024-03-23T03:34:30;13.00;99.90
46336;DHT22;31365;48.858;8.530;2024-03-23T03:37:00;13.00;99.90
46336;DHT22;31365;48.858;8.530;2024-03-23T03:39:26;12.90;99.90
46336;DHT22;31365;48.858;8.530;2024-03-23T03:41:54;12.80;99.90
46336;DHT22;31365;48.858;8.530;2024-03-23T03:44:20;12.70;99.90
46336;DHT22;31365;48.858;8.530;2024-03-23T03:46:47;12.60;99.90
46336;DHT22;31365;48.858;8.530;2024-03-23T03:49:15;12.50;99.90
46336;DHT22;31365;48.858;8.530;2024-03-23T03:51:43;12.40;99.90
46336;DHT22;31365;48.858;8.530;2024-03-23T03:54:09;12.40;99.90
46336;DHT22;31365;48.858;8.530;2024-03-23T03:56:37;12.20;99.90
46336;DHT22;31365;48.858;8.530;2024-03-23T03:59:03;12.10;99.90
46336;DHT22;31365;48.858;8.530;2024-03-23T04:01:31;11.90;99.90
46336;DHT22;31365;48.858;8.530;2024-03-23T04:03:58;11.80;99.90
46336;DHT22;31365;48.858;8.530;2024-03-23T04:06:26;11.70;99.90
46336;DHT22;31365;48.858;8.530;2024-03-23T04:08:53;11.60;99.90
46336;DHT22;31365;48.858;8.530;2024-03-23T04:11:20;11.50;99.90
46336;DHT22;31365;48.858;8.530;2024-03-23T04:13:47;11.40;99.90
46336;DHT22;31365;48.858;8.530;2024-03-23T04:16:24;11.40;99.90
46336;DHT22;31365;48.858;8.530;2024-03-23T04:18:52;11.40;99.90
46336;DHT22;31365;48.858;8.530;2024-03-23T04:21:20;11.30;99.90
46336;DHT22;31365;48.858;8.530;2024-03-23T04:23:48;11.30;99.90
46336;DHT22;31365;48.858;8.530;2024-03-23T04:26:16;11.30;99.90
46336;DHT22;31365;48.858;8.530;2024-03-23T04:28:42;11.20;99.90
46336;DHT22;31365;48.858;8.530;2024-03-23T04:31:10;11.20;99.90
46336;DHT22;31365;48.858;8.530;2024-03-23T04:33:37;11.20;99.90
46336;DHT22;31365;48.858;8.530;2024-03-23T04:36:06;11.10;99.90
46336;DHT22;31365;48.858;8.530;2024-03-23T04:38:33;11.00;99.90
46336;DHT22;31365;48.858;8.530;2024-03-23T04:41:02;10.90;99.90
46336;DHT22;31365;48.858;8.530;2024-03-23T04:43:30;10.90;99.90
46336;DHT22;31365;48.858;8.530;2024-03-23T04:45:57;10.80;99.90
46336;DHT22;31365;48.858;8.530;2024-03-23T04:48:24;10.70;99.90
46336;DHT22;31365;48.858;8.530;2024-03-23T04:50:55;10.70;99.90
46336;DHT22;31365;48.858;8.530;2024-03-23T04:53:23;10.60;99.90
46336;DHT22;31365;48.858;8.530;2024-03-23T04:55:54;10.50;99.90
46336;DHT22;31365;48.858;8.530;2024-03-23T04:58:24;10.50;99.90
46336;DHT22;31365;48.858;8.530;2024-03-23T05:00:53;10.40;99.90
46336;DHT22;31365;48.858;8.530;2024-03-23T05:03:22;10.40;99.90
46336;DHT22;31365;48.858;8.530;2024-03-23T05:05:48;10.30;99.90
46336;DHT22;31365;48.858;8.530;2024-03-23T05:08:16;10.20;99.90
46336;DHT22;31365;48.858;8.530;2024-03-23T05:10:43;10.10;99.90
46336;DHT22;31365;48.858;8.530;2024-03-23T05:13:10;10.00;99.90
46336;DHT22;31365;48.858;8.530;2024-03-23T05:15:38;10.00;99.90
46336;DHT22;31365;48.858;8.530;2024-03-23T05:18:06;9.90;99.90
46336;DHT22;31365;48.858;8.530;2024-03-23T05:20:33;9.80;99.90
46336;DHT22;31365;48.858;8.530;2024-03-23T05:23:00;9.70;99.90
46336;DHT22;31365;48.858;8.530;2024-03-23T05:25:27;9.70;99.90
46336;DHT22;31365;48.858;8.530;2024-03-23T05:27:54;9.60;99.90
46336;DHT22;31365;48.858;8.530;2024-03-23T05:30:20;9.60;99.90
46336;DHT22;31365;48.858;8.530;2024-03-23T05:32:49;9.50;99.90
46336;DHT22;31365;48.858;8.530;2024-03-23T05:35:16;9.40;99.90
46336;DHT22;31365;48.858;8.530;2024-03-23T05:37:43;9.40;99.90
46336;DHT22;31365;48.858;8.530;2024-03-23T05:40:11;9.30;99.90
46336;DHT22;31365;48.858;8.530;2024-03-23T05:42:41;9.30;99.90
46336;DHT22;31365;48.858;8.530;2024-03-23T05:45:08;9.30;99.90
46336;DHT22;31365;48.858;8.530;2024-03-23T05:47:37;9.20;99.90
46336;DHT22;31365;48.858;8.530;2024-03-23T05:50:06;9.10;99.90
46336;DHT22;31365;48.858;8.530;2024-03-23T05:52:37;9.00;99.90
46336;DHT22;31365;48.858;8.530;2024-03-23T05:55:04;8.90;99.90
46336;DHT22;31365;48.858;8.530;2024-03-23T05:57:31;8.80;99.90
46336;DHT22;31365;48.858;8.530;2024-03-23T05:59:59;8.80;99.90
46336;DHT22;31365;48.858;8.530;2024-03-23T06:02:25;8.70;99.90
46336;DHT22;31365;48.858;8.530;2024-03-23T06:04:52;8.70;99.90
46336;DHT22;31365;48.858;8.530;2024-03-23T06:07:20;8.70;99.90
46336;DHT22;31365;48.858;8.530;2024-03-23T06:09:48;8.70;99.90
46336;DHT22;31365;48.858;8.530;2024-03-23T06:12:17;8.70;99.90
46336;DHT22;31365;48.858;8.530;2024-03-23T06:14:45;8.60;99.90
46336;DHT22;31365;48.858;8.530;2024-03-23T06:17:11;8.60;99.90
46336;DHT22;31365;48.858;8.530;2024-03-23T06:19:40;8.60;99.90
46336;DHT22;31365;48.858;8.530;2024-03-23T06:22:06;8.50;99.90
46336;DHT22;31365;48.858;8.530;2024-03-23T06:24:35;8.50;99.90
46336;DHT22;31365;48.858;8.530;2024-03-23T06:27:02;8.50;99.90
46336;DHT22;31365;48.858;8.530;2024-03-23T06:29:30;8.50;99.90
46336;DHT22;31365;48.858;8.530;2024-03-23T06:31:58;8.50;99.90
46336;DHT22;31365;48.858;8.530;2024-03-23T06:34:25;8.40;99.90
46336;DHT22;31365;48.858;8.530;2024-03-23T06:36:53;8.40;99.90
46336;DHT22;31365;48.858;8.530;2024-03-23T06:39:19;8.30;99.90
46336;DHT22;31365;48.858;8.530;2024-03-23T06:41:53;8.30;99.90
46336;DHT22;31365;48.858;8.530;2024-03-23T06:44:20;8.30;99.90
46336;DHT22;31365;48.858;8.530;2024-03-23T06:46:48;8.30;99.90
46336;DHT22;31365;48.858;8.530;2024-03-23T06:49:14;8.30;99.90
46336;DHT22;31365;48.858;8.530;2024-03-23T06:51:42;8.30;99.90
46336;DHT22;31365;48.858;8.530;2024-03-23T06:54:10;8.30;99.90
46336;DHT22;31365;48.858;8.530;2024-03-23T06:56:37;8.40;99.90
46336;DHT22;31365;48.858;8.530;2024-03-23T06:59:07;8.40;99.90
46336;DHT22;31365;48.858;8.530;2024-03-23T07:01:34;8.30;99.90
46336;DHT22;31365;48.858;8.530;2024-03-23T07:04:01;8.30;99.90
46336;DHT22;31365;48.858;8.530;2024-03-23T07:06:31;8.30;99.90
46336;DHT22;31365;48.858;8.530;2024-03-23T07:08:58;8.40;99.90
46336;DHT22;31365;48.858;8.530;2024-03-23T07:11:26;8.30;99.90
46336;DHT22;31365;48.858;8.530;2024-03-23T07:13:53;8.30;99.90
46336;DHT22;31365;48.858;8.530;2024-03-23T07:16:23;8.10;99.90
46336;DHT22;31365;48.858;8.530;2024-03-23T07:18:50;8.00;99.90
46336;DHT22;31365;48.858;8.530;2024-03-23T07:21:17;7.90;99.90
46336;DHT22;31365;48.858;8.530;2024-03-23T07:23:44;7.90;99.90
46336;DHT22;31365;48.858;8.530;2024-03-23T07:26:12;7.90;99.90
46336;DHT22;31365;48.858;8.530;2024-03-23T07:28:38;8.00;99.90
46336;DHT22;31365;48.858;8.530;2024-03-23T07:31:11;8.00;99.90
46336;DHT22;31365;48.858;8.530;2024-03-23T07:33:42;8.10;99.90
46336;DHT22;31365;48.858;8.530;2024-03-23T07:36:11;8.20;99.90
46336;DHT22;31365;48.858;8.530;2024-03-23T07:38:40;8.30;99.90
46336;DHT22;31365;48.858;8.530;2024-03-23T07:41:09;8.40;99.90
46336;DHT22;31365;48.858;8.530;2024-03-23T07:43:37;8.40;99.90
46336;DHT22;31365;48.858;8.530;2024-03-23T07:46:06;8.40;99.90
46336;DHT22;31365;48.858;8.530;2024-03-23T07:48:33;8.40;99.90
46336;DHT22;31365;48.858;8.530;2024-03-23T07:51:03;8.50;99.90
46336;DHT22;31365;48.858;8.530;2024-03-23T07:53:31;8.40;99.90
46336;DHT22;31365;48.858;8.530;2024-03-23T07:56:01;8.30;99.90
46336;DHT22;31365;48.858;8.530;2024-03-23T07:58:28;8.30;99.90
46336;DHT22;31365;48.858;8.530;2024-03-23T08:00:56;8.20;99.90
46336;DHT22;31365;48.858;8.530;2024-03-23T08:03:29;8.20;99.90
46336;DHT22;31365;48.858;8.530;2024-03-23T08:05:57;8.20;99.90
46336;DHT22;31365;48.858;8.530;2024-03-23T08:08:28;8.20;99.90
46336;DHT22;31365;48.858;8.530;2024-03-23T08:10:54;8.20;99.90
46336;DHT22;31365;48.858;8.530;2024-03-23T08:13:22;8.20;99.90
46336;DHT22;31365;48.858;8.530;2024-03-23T08:15:48;8.30;99.90
46336;DHT22;31365;48.858;8.530;2024-03-23T08:18:15;8.30;99.90
46336;DHT22;31365;48.858;8.530;2024-03-23T08:20:42;8.40;99.90
46336;DHT22;31365;48.858;8.530;2024-03-23T08:23:09;8.50;99.90
46336;DHT22;31365;48.858;8.530;2024-03-23T08:25:38;8.50;99.90
46336;DHT22;31365;48.858;8.530;2024-03-23T08:28:05;8.50;99.90
46336;DHT22;31365;48.858;8.530;2024-03-23T08:30:35;8.50;99.90
46336;DHT22;31365;48.858;8.530;2024-03-23T08:33:03;8.50;99.90
46336;DHT22;31365;48.858;8.530;2024-03-23T08:35:30;8.50;99.90
46336;DHT22;31365;48.858;8.530;2024-03-23T08:37:57;8.50;99.90
46336;DHT22;31365;48.858;8.530;2024-03-23T08:40:24;8.40;99.90
46336;DHT22;31365;48.858;8.530;2024-03-23T08:42:53;8.40;99.90
46336;DHT22;31365;48.858;8.530;2024-03-23T08:45:19;8.40;99.90
46336;DHT22;31365;48.858;8.530;2024-03-23T08:47:47;8.40;99.90
46336;DHT22;31365;48.858;8.530;2024-03-23T08:50:13;8.30;99.90
46336;DHT22;31365;48.858;8.530;2024-03-23T08:52:42;8.30;99.90
46336;DHT22;31365;48.858;8.530;2024-03-23T08:55:10;8.40;99.90
46336;DHT22;31365;48.858;8.530;2024-03-23T08:57:37;8.50;99.90
46336;DHT22;31365;48.858;8.530;2024-03-23T09:00:07;8.60;99.90
46336;DHT22;31365;48.858;8.530;2024-03-23T09:02:37;8.70;99.90
46336;DHT22;31365;48.858;8.530;2024-03-23T09:05:04;8.60;99.90
46336;DHT22;31365;48.858;8.530;2024-03-23T09:07:32;8.50;99.90
46336;DHT22;31365;48.858;8.530;2024-03-23T09:09:58;8.50;99.90
46336;DHT22;31365;48.858;8.530;2024-03-23T09:12:26;8.60;99.90
46336;DHT22;31365;48.858;8.530;2024-03-23T09:14:52;8.60;99.90
46336;DHT22;31365;48.858;8.530;2024-03-23T09:17:21;8.60;99.90
46336;DHT22;31365;48.858;8.530;2024-03-23T09:19:48;8.70;99.90
46336;DHT22;31365;48.858;8.530;2024-03-23T09:22:15;8.80;99.90
46336;DHT22;31365;48.858;8.530;2024-03-23T09:24:41;8.80;99.90
46336;DHT22;31365;48.858;8.530;2024-03-23T09:27:10;8.90;99.90
46336;DHT22;31365;48.858;8.530;2024-03-23T09:29:37;9.00;99.90
46336;DHT22;31365;48.858;8.530;2024-03-23T09:32:05;9.10;99.90
46336;DHT22;31365;48.858;8.530;2024-03-23T09:34:34;9.10;99.90
46336;DHT22;31365;48.858;8.530;2024-03-23T09:37:01;9.10;99.90
46336;DHT22;31365;48.858;8.530;2024-03-23T09:39:28;9.30;99.90
46336;DHT22;31365;48.858;8.530;2024-03-23T09:41:56;9.50;99.90
46336;DHT22;31365;48.858;8.530;2024-03-23T09:44:24;9.60;99.90
46336;DHT22;31365;48.858;8.530;2024-03-23T09:46:55;9.80;99.90
46336;DHT22;31365;48.858;8.530;2024-03-23T09:49:22;10.20;99.90
46336;DHT22;31365;48.858;8.530;2024-03-23T09:51:51;10.40;99.90
46336;DHT22;31365;48.858;8.530;2024-03-23T09:54:18;10.40;99.90
46336;DHT22;31365;48.858;8.530;2024-03-23T09:56:46;10.30;99.90
46336;DHT22;31365;48.858;8.530;2024-03-23T09:59:12;10.00;99.90
46336;DHT22;31365;48.858;8.530;2024-03-23T10:01:40;9.70;99.90
46336;DHT22;31365;48.858;8.530;2024-03-23T10:04:06;9.50;99.90
46336;DHT22;31365;48.858;8.530;2024-03-23T10:06:34;9.30;99.90
46336;DHT22;31365;48.858;8.530;2024-03-23T10:09:02;8.70;99.90
46336;DHT22;31365;48.858;8.530;2024-03-23T10:11:43;7.90;99.90
46336;DHT22;31365;48.858;8.530;2024-03-23T10:14:29;7.10;99.90
46336;DHT22;31365;48.858;8.530;2024-03-23T10:17:11;6.50;99.90
46336;DHT22;31365;48.858;8.530;2024-03-23T10:19:40;6.10;99.90
46336;DHT22;31365;48.858;8.530;2024-03-23T10:22:09;5.90;99.90
46336;DHT22;31365;48.858;8.530;2024-03-23T10:24:37;5.90;99.90
46336;DHT22;31365;48.858;8.530;2024-03-23T10:27:05;6.00;99.90
46336;DHT22;31365;48.858;8.530;2024-03-23T10:29:31;6.30;99.90
46336;DHT22;31365;48.858;8.530;2024-03-23T10:32:09;6.60;99.90
46336;DHT22;31365;48.858;8.530;2024-03-23T10:34:36;6.80;99.90
46336;DHT22;31365;48.858;8.530;2024-03-23T10:37:18;6.90;99.90
46336;DHT22;31365;48.858;8.530;2024-03-23T10:39:47;7.10;99.90
46336;DHT22;31365;48.858;8.530;2024-03-23T10:42:14;7.30;99.90
46336;DHT22;31365;48.858;8.530;2024-03-23T10:44:43;7.50;99.90
46336;DHT22;31365;48.858;8.530;2024-03-23T10:47:09;7.70;99.90
46336;DHT22;31365;48.858;8.530;2024-03-23T10:49:38;7.90;99.90
46336;DHT22;31365;48.858;8.530;2024-03-23T10:52:05;8.10;99.90
46336;DHT22;31365;48.858;8.530;2024-03-23T10:54:33;8.40;99.90
46336;DHT22;31365;48.858;8.530;2024-03-23T10:57:05;8.90;99.90
46336;DHT22;31365;48.858;8.530;2024-03-23T10:59:37;9.40;99.90
46336;DHT22;31365;48.858;8.530;2024-03-23T11:02:06;9.60;99.90
46336;DHT22;31365;48.858;8.530;2024-03-23T11:04:35;10.00;99.90
46336;DHT22;31365;48.858;8.530;2024-03-23T11:07:29;10.00;99.90
46336;DHT22;31365;48.858;8.530;2024-03-23T11:09:59;10.50;99.90
46336;DHT22;31365;48.858;8.530;2024-03-23T11:12:50;11.00;99.90
46336;DHT22;31365;48.858;8.530;2024-03-23T11:15:17;11.20;99.90
46336;DHT22;31365;48.858;8.530;2024-03-23T11:18:02;11.50;99.90
46336;DHT22;31365;48.858;8.530;2024-03-23T11:20:34;11.80;99.90
46336;DHT22;31365;48.858;8.530;2024-03-23T11:23:01;11.70;99.90
46336;DHT22;31365;48.858;8.530;2024-03-23T11:25:29;11.90;99.90
46336;DHT22;31365;48.858;8.530;2024-03-23T11:28:09;12.30;99.90
46336;DHT22;31365;48.858;8.530;2024-03-23T11:30:38;12.60;99.90
46336;DHT22;31365;48.858;8.530;2024-03-23T11:33:06;13.40;99.90
46336;DHT22;31365;48.858;8.530;2024-03-23T11:35:34;13.20;99.90
46336;DHT22;31365;48.858;8.530;2024-03-23T11:38:07;13.30;99.90
46336;DHT22;31365;48.858;8.530;2024-03-23T11:40:36;13.80;99.90
46336;DHT22;31365;48.858;8.530;2024-03-23T11:43:06;14.20;99.90
46336;DHT22;31365;48.858;8.530;2024-03-23T11:45:39;14.40;99.90
46336;DHT22;31365;48.858;8.530;2024-03-23T11:48:09;13.90;99.90
46336;DHT22;31365;48.858;8.530;2024-03-23T11:50:38;14.00;99.90
46336;DHT22;31365;48.858;8.530;2024-03-23T11:53:12;14.30;99.90
46336;DHT22;31365;48.858;8.530;2024-03-23T11:55:43;14.60;99.90
46336;DHT22;31365;48.858;8.530;2024-03-23T11:58:14;15.20;99.90
46336;DHT22;31365;48.858;8.530;2024-03-23T12:00:43;15.60;99.90
46336;DHT22;31365;48.858;8.530;2024-03-23T12:03:16;15.60;99.90
46336;DHT22;31365;48.858;8.530;2024-03-23T12:05:49;15.90;99.90
46336;DHT22;31365;48.858;8.530;2024-03-23T12:08:22;15.50;99.90
46336;DHT22;31365;48.858;8.530;2024-03-23T12:10:52;15.40;99.90
46336;DHT22;31365;48.858;8.530;2024-03-23T12:13:22;15.10;99.90
46336;DHT22;31365;48.858;8.530;2024-03-23T12:15:52;14.50;99.90
46336;DHT22;31365;48.858;8.530;2024-03-23T12:18:23;14.70;99.90
46336;DHT22;31365;48.858;8.530;2024-03-23T12:20:53;15.40;99.90
46336;DHT22;31365;48.858;8.530;2024-03-23T12:23:20;16.20;99.90
46336;DHT22;31365;48.858;8.530;2024-03-23T12:25:50;16.70;99.90
46336;DHT22;31365;48.858;8.530;2024-03-23T12:28:17;17.20;99.90
46336;DHT22;31365;48.858;8.530;2024-03-23T12:30:46;17.50;99.90
46336;DHT22;31365;48.858;8.530;2024-03-23T12:33:17;17.60;99.90
46336;DHT22;31365;48.858;8.530;2024-03-23T12:35:56;17.50;99.90
46336;DHT22;31365;48.858;8.530;2024-03-23T12:38:23;17.30;99.90
46336;DHT22;31365;48.858;8.530;2024-03-23T12:40:50;15.80;99.90
46336;DHT22;31365;48.858;8.530;2024-03-23T12:43:17;14.50;99.90
46336;DHT22;31365;48.858;8.530;2024-03-23T12:45:48;15.00;99.90
46336;DHT22;31365;48.858;8.530;2024-03-23T12:48:17;15.40;99.90
46336;DHT22;31365;48.858;8.530;2024-03-23T12:50:44;15.30;99.90
46336;DHT22;31365;48.858;8.530;2024-03-23T12:53:10;16.20;99.90
46336;DHT22;31365;48.858;8.530;2024-03-23T12:55:41;16.70;99.90
46336;DHT22;31365;48.858;8.530;2024-03-23T12:58:10;16.30;99.90
46336;DHT22;31365;48.858;8.530;2024-03-23T13:00:38;15.70;99.90
46336;DHT22;31365;48.858;8.530;2024-03-23T13:03:06;15.70;99.90
46336;DHT22;31365;48.858;8.530;2024-03-23T13:05:38;15.70;99.90
46336;DHT22;31365;48.858;8.530;2024-03-23T13:08:05;15.20;99.90
46336;DHT22;31365;48.858;8.530;2024-03-23T13:10:33;14.60;99.90
46336;DHT22;31365;48.858;8.530;2024-03-23T13:12:59;13.40;99.90
46336;DHT22;31365;48.858;8.530;2024-03-23T13:15:27;12.40;99.90
46336;DHT22;31365;48.858;8.530;2024-03-23T13:22:13;10.40;99.90
46336;DHT22;31365;48.858;8.530;2024-03-23T13:24:41;9.30;99.90
46336;DHT22;31365;48.858;8.530;2024-03-23T13:27:07;8.90;99.90
46336;DHT22;31365;48.858;8.530;2024-03-23T13:29:37;8.70;99.90
46336;DHT22;31365;48.858;8.530;2024-03-23T13:32:04;10.20;99.90
46336;DHT22;31365;48.858;8.530;2024-03-23T13:34:32;11.30;99.90
46336;DHT22;31365;48.858;8.530;2024-03-23T13:36:59;11.30;99.90
46336;DHT22;31365;48.858;8.530;2024-03-23T13:39:28;11.40;99.90
46336;DHT22;31365;48.858;8.530;2024-03-23T13:41:54;11.00;99.90
46336;DHT22;31365;48.858;8.530;2024-03-23T13:44:22;10.40;99.90
46336;DHT22;31365;48.858;8.530;2024-03-23T13:46:48;9.70;99.90
46336;DHT22;31365;48.858;8.530;2024-03-23T13:49:25;9.10;99.90
46336;DHT22;31365;48.858;8.530;2024-03-23T13:51:53;8.60;99.90
46336;DHT22;31365;48.858;8.530;2024-03-23T13:54:20;8.40;99.90
46336;DHT22;31365;48.858;8.530;2024-03-23T13:56:49;8.50;99.90
46336;DHT22;31365;48.858;8.530;2024-03-23T13:59:17;10.10;99.90
46336;DHT22;31365;48.858;8.530;2024-03-23T14:01:44;12.30;99.90
46336;DHT22;31365;48.858;8.530;2024-03-23T14:04:12;14.20;99.90
46336;DHT22;31365;48.858;8.530;2024-03-23T14:06:38;15.70;99.90
46336;DHT22;31365;48.858;8.530;2024-03-23T14:09:07;16.60;99.90
46336;DHT22;31365;48.858;8.530;2024-03-23T14:11:37;17.20;99.90
46336;DHT22;31365;48.858;8.530;2024-03-23T14:14:07;18.00;99.90
46336;DHT22;31365;48.858;8.530;2024-03-23T14:16:34;17.30;99.90
46336;DHT22;31365;48.858;8.530;2024-03-23T14:19:01;17.50;99.90
46336;DHT22;31365;48.858;8.530;2024-03-23T14:21:29;17.60;99.90
46336;DHT22;31365;48.858;8.530;2024-03-23T14:23:56;16.50;99.90
46336;DHT22;31365;48.858;8.530;2024-03-23T14:26:22;14.20;99.90
46336;DHT22;31365;48.858;8.530;2024-03-23T14:28:50;12.60;99.90
46336;DHT22;31365;48.858;8.530;2024-03-23T14:31:18;11.60;99.90
46336;DHT22;31365;48.858;8.530;2024-03-23T14:33:46;10.70;99.90
46336;DHT22;31365;48.858;8.530;2024-03-23T14:36:13;9.80;99.90
46336;DHT22;31365;48.858;8.530;2024-03-23T14:38:42;9.10;99.90
46336;DHT22;31365;48.858;8.530;2024-03-23T14:41:08;8.60;99.90
46336;DHT22;31365;48.858;8.530;2024-03-23T14:43:37;8.60;99.90
46336;DHT22;31365;48.858;8.530;2024-03-23T14:46:08;8.60;99.90
46336;DHT22;31365;48.858;8.530;2024-03-23T14:48:39;8.60;99.90
46336;DHT22;31365;48.858;8.530;2024-03-23T14:51:06;8.60;99.90
46336;DHT22;31365;48.858;8.530;2024-03-23T14:53:36;8.60;99.90
46336;DHT22;31365;48.858;8.530;2024-03-23T14:56:07;8.70;99.90
46336;DHT22;31365;48.858;8.530;2024-03-23T14:58:37;8.60;99.90
46336;DHT22;31365;48.858;8.530;2024-03-23T15:01:05;8.50;99.90
46336;DHT22;31365;48.858;8.530;2024-03-23T15:03:35;8.60;99.90
46336;DHT22;31365;48.858;8.530;2024-03-23T15:06:04;8.60;99.90
46336;DHT22;31365;48.858;8.530;2024-03-23T15:08:31;8.70;99.90
46336;DHT22;31365;48.858;8.530;2024-03-23T15:11:00;8.80;99.90
46336;DHT22;31365;48.858;8.530;2024-03-23T15:13:31;9.10;99.90
46336;DHT22;31365;48.858;8.530;2024-03-23T15:15:58;9.20;99.90
46336;DHT22;31365;48.858;8.530;2024-03-23T15:18:25;9.30;99.90
46336;DHT22;31365;48.858;8.530;2024-03-23T15:20:55;9.40;99.90
46336;DHT22;31365;48.858;8.530;2024-03-23T15:23:24;9.40;99.90
46336;DHT22;31365;48.858;8.530;2024-03-23T15:25:54;9.10;99.90
46336;DHT22;31365;48.858;8.530;2024-03-23T15:28:23;9.00;99.90
46336;DHT22;31365;48.858;8.530;2024-03-23T15:30:50;9.00;99.90
46336;DHT22;31365;48.858;8.530;2024-03-23T15:33:17;8.90;99.90
46336;DHT22;31365;48.858;8.530;2024-03-23T15:35:43;8.90;99.90
46336;DHT22;31365;48.858;8.530;2024-03-23T15:38:11;8.80;99.90
46336;DHT22;31365;48.858;8.530;2024-03-23T15:40:39;8.70;99.90
46336;DHT22;31365;48.858;8.530;2024-03-23T15:43:06;8.60;99.90
46336;DHT22;31365;48.858;8.530;2024-03-23T15:45:33;8.50;99.90
46336;DHT22;31365;48.858;8.530;2024-03-23T15:48:00;8.50;99.90
46336;DHT22;31365;48.858;8.530;2024-03-23T15:50:27;8.50;99.90
46336;DHT22;31365;48.858;8.530;2024-03-23T15:52:54;8.40;99.90
46336;DHT22;31365;48.858;8.530;2024-03-23T15:55:21;8.40;99.90
46336;DHT22;31365;48.858;8.530;2024-03-23T15:57:50;8.40;99.90
46336;DHT22;31365;48.858;8.530;2024-03-23T16:00:18;8.30;99.90
46336;DHT22;31365;48.858;8.530;2024-03-23T16:02:46;8.20;99.90
46336;DHT22;31365;48.858;8.530;2024-03-23T16:05:12;7.90;99.90
46336;DHT22;31365;48.858;8.530;2024-03-23T16:07:41;7.70;99.90
46336;DHT22;31365;48.858;8.530;2024-03-23T16:10:08;7.60;99.90
46336;DHT22;31365;48.858;8.530;2024-03-23T16:12:37;7.60;99.90
46336;DHT22;31365;48.858;8.530;2024-03-23T16:15:07;7.50;99.90
46336;DHT22;31365;48.858;8.530;2024-03-23T16:17:36;7.50;99.90
46336;DHT22;31365;48.858;8.530;2024-03-23T16:20:03;7.50;99.90
46336;DHT22;31365;48.858;8.530;2024-03-23T16:22:35;7.40;99.90
46336;DHT22;31365;48.858;8.530;2024-03-23T16:25:01;7.30;99.90
46336;DHT22;31365;48.858;8.530;2024-03-23T16:27:30;7.20;99.90
46336;DHT22;31365;48.858;8.530;2024-03-23T16:29:57;7.30;99.90
46336;DHT22;31365;48.858;8.530;2024-03-23T16:32:26;7.10;99.90
46336;DHT22;31365;48.858;8.530;2024-03-23T16:34:55;7.00;99.90
46336;DHT22;31365;48.858;8.530;2024-03-23T16:37:22;7.10;99.90
46336;DHT22;31365;48.858;8.530;2024-03-23T16:39:49;7.00;99.90
46336;DHT22;31365;48.858;8.530;2024-03-23T16:42:15;7.10;99.90